PATK/TKA METAR and TAF weather

Enter ICAO airport designator
Station Type Date Time Source
PATK METAR 2021/05/14 22:53 UTC NOAA

PATK 142253Z 22008KT 10SM CLR 16/M01 A2983 RMK AO2 SLP106 T01611006


Station Type Date Time Source
PATK Decoded METAR 2021/05/14 22:53 UTC NOAA

TALKEETNA AIRPORT, AK, United States (PATK) 62-19N 150-06W 109M
May 14, 2021 - 06:53 PM EDT / 2021.05.14 2253 UTC
Wind: from the SW (220 degrees) at 9 MPH (8 KT):0
Visibility: 10 mile(s):0
Sky conditions: clear
Temperature: 61.0 F (16.1 C)
Dew Point: 30.9 F (-0.6 C)
Relative Humidity: 31%
Pressure (altimeter): 29.83 in. Hg (1010 hPa)
ob: PATK 142253Z 22008KT 10SM CLR 16/M01 A2983 RMK AO2 SLP106 T01611006
cycle: 23

Station Type Date Time Source
PATK TAF 2021/05/14 18:48 UTC NOAA

TAF PATK 141747Z 1418/1518 VRB06KT P6SM SCT100
FM150600 VRB05KT P6SM BKN080 OVC150

Example: see airport list